Time;durP1;ratioP1;P1;durP2;ratioP2;P2;SDS_P1;SDS_P2;PMS_P1;PMS_P2;Temp;Humidity;BMP_temperature;BMP_pressure;BME280_temperature;BME280_humidity;BME280_pressure;Samples;Min_cycle;Max_cycle;Signal;HPM_P1;HPM_P2
2022/11/23 00:00:27;;;;;;;6.07;4.72;;;19.40;40.70;;;;;;5114744;28;20081;-11
2022/11/23 00:02:53;;;;;;;4.70;4.00;;;19.40;40.80;;;;;;5096681;28;20094;-10
2022/11/23 00:05:19;;;;;;;5.18;4.40;;;19.40;40.80;;;;;;5114690;28;20512;-10
2022/11/23 00:07:45;;;;;;;5.68;4.07;;;19.40;41.40;;;;;;5115178;28;20052;-11
2022/11/23 00:10:10;;;;;;;5.57;4.57;;;19.40;40.80;;;;;;5114642;28;20044;-11
2022/11/23 00:12:36;;;;;;;6.50;4.45;;;19.40;40.90;;;;;;5114934;28;20070;-11
2022/11/23 00:15:02;;;;;;;5.35;4.15;;;19.40;40.80;;;;;;5114562;28;20051;-11
2022/11/23 00:17:29;;;;;;;5.63;4.75;;;19.40;40.80;;;;;;5114679;28;20071;-11
2022/11/23 00:19:56;;;;;;;5.53;4.38;;;19.40;40.80;;;;;;5114431;28;20047;-10
2022/11/23 00:22:23;;;;;;;6.18;4.50;;;19.40;40.80;;;;;;5114305;28;20081;-11
2022/11/23 00:24:50;;;;;;;5.82;4.25;;;19.40;40.80;;;;;;5114425;28;20056;-11
2022/11/23 00:27:16;;;;;;;5.50;4.13;;;19.40;40.80;;;;;;5114804;28;20051;-11
2022/11/23 00:29:42;;;;;;;5.70;4.80;;;19.40;40.80;;;;;;5113931;28;20044;-11
2022/11/23 00:32:07;;;;;;;6.53;4.45;;;19.40;40.90;;;;;;5114179;28;20054;-11
2022/11/23 00:34:36;;;;;;;5.85;4.38;;;19.40;40.80;;;;;;5114077;28;20052;-11
2022/11/23 00:37:01;;;;;;;4.78;4.25;;;19.40;40.80;;;;;;5114110;28;20055;-11
2022/11/23 00:39:27;;;;;;;4.57;4.07;;;19.40;41.40;;;;;;5114043;28;20056;-11
2022/11/23 00:41:52;;;;;;;4.63;3.70;;;19.40;40.90;;;;;;5113963;28;20558;-11
2022/11/23 00:44:18;;;;;;;5.43;4.57;;;19.40;40.80;;;;;;5114339;28;20100;-11
2022/11/23 00:46:44;;;;;;;5.45;4.20;;;19.40;40.80;;;;;;5114052;28;20063;-11
2022/11/23 00:49:09;;;;;;;5.88;4.68;;;19.40;40.80;;;;;;5112518;28;20380;-11
2022/11/23 00:51:36;;;;;;;5.47;4.38;;;19.40;40.80;;;;;;5113916;28;20044;-11
2022/11/23 00:54:04;;;;;;;4.88;4.05;;;19.40;40.80;;;;;;5113853;28;20407;-11
2022/11/23 00:56:31;;;;;;;5.15;4.32;;;19.40;40.80;;;;;;5113786;28;20094;-11
2022/11/23 00:58:58;;;;;;;4.80;4.22;;;19.40;40.80;;;;;;5113380;28;20108;-11
2022/11/23 01:01:28;;;;;;;5.38;4.45;;;19.40;40.80;;;;;;5095494;28;20047;-11
2022/11/23 01:03:57;;;;;;;5.85;4.65;;;19.40;40.80;;;;;;5095434;28;20047;-11
2022/11/23 01:06:26;;;;;;;5.03;4.30;;;19.40;40.80;;;;;;5095320;28;20051;-11
2022/11/23 01:08:54;;;;;;;5.15;4.63;;;19.40;41.30;;;;;;5095379;28;20047;-11
2022/11/23 01:11:22;;;;;;;4.85;4.18;;;19.40;40.80;;;;;;5113627;28;20391;-11
2022/11/23 01:13:48;;;;;;;5.15;4.32;;;19.40;40.80;;;;;;5114134;28;20459;-11
2022/11/23 01:16:20;;;;;;;4.15;3.72;;;19.40;40.80;;;;;;5113504;28;20130;-11
2022/11/23 01:18:46;;;;;;;4.80;4.05;;;19.40;40.90;;;;;;5094332;28;20048;-11
2022/11/23 01:21:12;;;;;;;5.35;4.20;;;19.40;40.80;;;;;;5113529;28;20043;-10
2022/11/23 01:23:38;;;;;;;6.28;4.70;;;19.40;40.80;;;;;;5113465;28;20058;-11
2022/11/23 01:26:07;;;;;;;5.22;4.28;;;19.40;40.80;;;;;;5113444;28;20130;-11
2022/11/23 01:28:33;;;;;;;6.10;4.32;;;19.30;40.80;;;;;;5113171;28;20112;-10
2022/11/23 01:31:07;;;;;;;6.00;4.30;;;19.40;40.80;;;;;;5113404;28;20054;-11
2022/11/23 01:33:33;;;;;;;5.35;4.70;;;19.30;40.80;;;;;;5095406;28;20056;-11
2022/11/23 01:35:58;;;;;;;5.05;4.10;;;19.30;40.80;;;;;;5113615;28;20063;-11
2022/11/23 01:38:24;;;;;;;5.18;4.43;;;19.30;40.80;;;;;;5090765;28;20074;-11
2022/11/23 01:40:50;;;;;;;5.30;4.57;;;19.40;40.80;;;;;;5113165;28;20511;-11
2022/11/23 01:43:17;;;;;;;4.40;3.97;;;19.40;40.80;;;;;;5113240;28;20056;-11
2022/11/23 01:45:54;;;;;;;4.85;4.35;;;19.40;40.80;;;;;;5113723;28;20046;-11
2022/11/23 01:48:27;;;;;;;5.38;4.20;;;19.40;40.80;;;;;;5112847;28;21406;-11
2022/11/23 01:50:55;;;;;;;5.20;4.05;;;19.40;40.80;;;;;;5112974;28;20547;-11
2022/11/23 01:53:21;;;;;;;5.32;4.00;;;19.40;40.80;;;;;;5113483;28;20092;-10
2022/11/23 01:55:49;;;;;;;5.72;4.35;;;19.30;40.80;;;;;;5094670;28;20402;-11
2022/11/23 01:58:19;;;;;;;4.97;4.47;;;19.40;40.80;;;;;;5112691;28;20057;-11
2022/11/23 02:00:46;;;;;;;6.07;4.80;;;19.40;40.70;;;;;;5095153;28;20054;-11
2022/11/23 02:03:14;;;;;;;4.95;4.03;;;19.40;40.80;;;;;;5094589;28;20055;-11
2022/11/23 02:05:48;;;;;;;5.13;4.60;;;19.40;41.30;;;;;;5113167;28;20055;-11
2022/11/23 02:08:16;;;;;;;5.55;3.97;;;19.40;40.70;;;;;;5112807;28;20067;-11
2022/11/23 02:10:44;;;;;;;5.20;4.07;;;19.40;40.70;;;;;;5112907;28;20128;-11
2022/11/23 02:13:12;;;;;;;5.07;3.80;;;19.40;40.70;;;;;;5115934;28;20143;-11
2022/11/23 02:15:38;;;;;;;4.45;3.95;;;19.40;40.70;;;;;;5116993;28;20484;-11
2022/11/23 02:18:11;;;;;;;5.68;4.45;;;19.40;40.70;;;;;;5116397;28;20047;-11
2022/11/23 02:20:38;;;;;;;4.88;3.97;;;19.40;40.70;;;;;;5097983;28;20108;-11
2022/11/23 02:23:20;;;;;;;6.20;4.57;;;19.40;40.70;;;;;;5098464;28;20375;-11
2022/11/23 02:25:46;;;;;;;5.30;4.38;;;19.40;40.60;;;;;;5116604;28;20054;-11
2022/11/23 02:28:17;;;;;;;5.57;3.78;;;19.40;40.70;;;;;;5116211;28;20449;-11
2022/11/23 02:30:46;;;;;;;5.07;3.97;;;19.40;40.70;;;;;;5116578;28;20461;-11
2022/11/23 02:33:12;;;;;;;5.50;4.35;;;19.40;40.80;;;;;;5097815;28;20055;-11
2022/11/23 02:35:52;;;;;;;4.72;4.10;;;19.40;40.70;;;;;;5116066;28;20131;-11
2022/11/23 02:38:19;;;;;;;5.00;4.40;;;19.40;40.80;;;;;;5116489;28;20142;-11
2022/11/23 02:40:45;;;;;;;5.30;4.20;;;19.40;40.80;;;;;;5116503;28;20458;-11
2022/11/23 02:43:11;;;;;;;5.40;3.50;;;19.40;40.80;;;;;;5115865;28;20138;-11
2022/11/23 02:45:50;;;;;;;4.63;3.97;;;19.40;40.80;;;;;;5114660;28;20052;-11
2022/11/23 02:48:17;;;;;;;6.85;4.95;;;19.40;40.80;;;;;;5116188;28;20104;-11
2022/11/23 02:50:43;;;;;;;4.35;3.78;;;19.40;40.70;;;;;;5114470;28;20052;-11
2022/11/23 02:53:09;;;;;;;5.88;4.20;;;19.40;40.70;;;;;;5116423;28;20059;-11
2022/11/23 02:55:35;;;;;;;5.93;4.63;;;19.40;40.70;;;;;;5115805;28;20403;-11
2022/11/23 02:58:02;;;;;;;4.15;3.72;;;19.40;40.70;;;;;;5114411;28;20051;-11
2022/11/23 03:00:28;;;;;;;4.72;4.10;;;19.40;40.80;;;;;;5097375;28;20055;-11
2022/11/23 03:02:53;;;;;;;4.20;3.80;;;19.40;40.80;;;;;;5097361;28;20056;-11
2022/11/23 03:05:19;;;;;;;5.30;4.53;;;19.40;40.70;;;;;;5115828;28;20096;-11
2022/11/23 03:07:49;;;;;;;6.32;4.35;;;19.40;40.80;;;;;;5112073;28;20071;-11
2022/11/23 03:10:14;;;;;;;4.25;3.80;;;19.40;40.80;;;;;;5115611;28;20047;-10
2022/11/23 03:12:43;;;;;;;4.68;3.95;;;19.40;40.80;;;;;;5114189;28;20052;-11
2022/11/23 03:15:12;;;;;;;4.70;4.03;;;19.40;40.80;;;;;;5116033;28;20058;-11
2022/11/23 03:17:40;;;;;;;5.68;3.90;;;19.40;40.80;;;;;;5115449;28;20576;-11
2022/11/23 03:20:09;;;;;;;4.40;3.80;;;19.40;40.70;;;;;;5095526;28;20134;-11
2022/11/23 03:22:38;;;;;;;4.78;3.97;;;19.40;40.80;;;;;;5096580;28;20487;-11
2022/11/23 03:25:04;;;;;;;5.53;4.28;;;19.40;40.70;;;;;;5097227;28;20102;-11
2022/11/23 03:27:32;;;;;;;4.75;4.18;;;19.40;40.70;;;;;;5096985;28;20195;-11
2022/11/23 03:29:58;;;;;;;4.78;3.78;;;19.40;40.70;;;;;;5097359;28;20155;-11
2022/11/23 03:32:25;;;;;;;5.70;4.82;;;19.40;40.70;;;;;;5096897;28;20464;-11
2022/11/23 03:34:54;;;;;;;6.13;4.32;;;19.40;40.70;;;;;;5096913;28;20048;-11
2022/11/23 03:37:21;;;;;;;5.20;4.20;;;19.40;40.70;;;;;;5096990;28;20047;-11
2022/11/23 03:39:50;;;;;;;4.70;4.20;;;19.40;40.70;;;;;;5096690;28;20051;-10
2022/11/23 03:42:34;;;;;;;4.80;4.13;;;19.40;40.70;;;;;;5115088;28;20050;-11
2022/11/23 03:45:00;;;;;;;4.97;4.10;;;19.40;40.70;;;;;;5096700;28;20055;-11
2022/11/23 03:47:26;;;;;;;4.68;3.80;;;19.40;40.70;;;;;;5113630;28;20047;-11
2022/11/23 03:49:53;;;;;;;4.72;4.00;;;19.40;40.70;;;;;;5113583;28;20047;-11
2022/11/23 03:52:19;;;;;;;5.88;3.92;;;19.40;40.70;;;;;;5096621;28;20055;-11
2022/11/23 03:54:46;;;;;;;5.40;3.92;;;19.40;40.70;;;;;;5097072;28;20062;-11
2022/11/23 03:57:12;;;;;;;5.85;4.70;;;19.40;40.70;;;;;;5114698;28;20047;-11
2022/11/23 03:59:37;;;;;;;4.47;3.75;;;19.40;40.70;;;;;;5095846;28;20043;-11
2022/11/23 04:02:03;;;;;;;5.03;4.10;;;19.40;40.70;;;;;;5080426;28;20172;-11
2022/11/23 04:04:34;;;;;;;4.45;3.95;;;19.40;40.60;;;;;;5094957;28;20408;-11
2022/11/23 04:07:23;;;;;;;3.50;2.97;;;19.40;41.30;;;;;;5094610;28;20087;-11
2022/11/23 04:09:52;;;;;;;4.95;3.97;;;19.40;41.30;;;;;;5096379;28;20419;-11
2022/11/23 04:12:41;;;;;;;4.97;4.15;;;19.40;40.70;;;;;;5106019;28;20111;-11
2022/11/23 04:15:07;;;;;;;6.05;4.15;;;19.40;40.70;;;;;;5095064;28;20048;-11
2022/11/23 04:17:34;;;;;;;5.63;4.35;;;19.40;40.80;;;;;;5096311;28;20051;-11
2022/11/23 04:20:00;;;;;;;4.47;3.92;;;19.40;40.80;;;;;;5096065;28;20058;-11
2022/11/23 04:22:25;;;;;;;4.38;3.85;;;19.40;40.70;;;;;;5113274;28;20051;-10
2022/11/23 04:24:52;;;;;;;5.03;4.18;;;19.40;41.30;;;;;;5096079;28;20138;-11
2022/11/23 04:27:18;;;;;;;4.80;4.22;;;19.30;40.80;;;;;;5096691;28;20132;-10
2022/11/23 04:29:44;;;;;;;5.35;4.20;;;19.40;40.80;;;;;;5114243;28;20495;-11
2022/11/23 04:32:10;;;;;;;5.38;3.92;;;19.40;40.80;;;;;;5094702;28;20048;-11
2022/11/23 04:34:36;;;;;;;4.65;4.13;;;19.40;40.80;;;;;;5093775;28;20055;-11
2022/11/23 04:37:03;;;;;;;4.72;3.97;;;19.40;41.30;;;;;;5080829;28;20047;-11
2022/11/23 04:39:35;;;;;;;5.00;4.28;;;19.40;40.70;;;;;;5096161;28;20403;-11
2022/11/23 04:42:29;;;;;;;4.60;3.90;;;19.40;40.70;;;;;;5095953;28;20097;-11
2022/11/23 04:44:58;;;;;;;5.13;4.45;;;19.40;40.70;;;;;;5095643;28;20051;-10
2022/11/23 04:47:25;;;;;;;4.25;3.65;;;19.40;40.70;;;;;;5095557;28;20057;-11
2022/11/23 04:49:52;;;;;;;4.10;3.60;;;19.40;40.70;;;;;;5095856;28;20043;-11
2022/11/23 04:52:19;;;;;;;4.97;4.18;;;19.40;40.70;;;;;;5112384;28;20112;-11
2022/11/23 04:54:46;;;;;;;4.07;3.65;;;19.40;40.70;;;;;;5095503;28;20063;-11
2022/11/23 04:57:13;;;;;;;5.47;4.20;;;19.40;40.70;;;;;;5093967;28;20055;-11
2022/11/23 04:59:39;;;;;;;5.32;4.28;;;19.40;40.60;;;;;;5080661;28;20058;-11
2022/11/23 05:02:05;;;;;;;4.30;3.90;;;19.40;40.70;;;;;;5095102;28;20059;-11
2022/11/23 05:04:44;;;;;;;5.57;4.22;;;19.40;40.70;;;;;;5095100;28;20488;-11
2022/11/23 05:07:11;;;;;;;5.18;4.30;;;19.40;40.70;;;;;;5112003;28;20059;-11
2022/11/23 05:09:38;;;;;;;5.00;4.50;;;19.40;40.70;;;;;;5080532;28;20048;-11
2022/11/23 05:12:22;;;;;;;4.20;3.78;;;19.40;40.70;;;;;;5095631;28;20047;-11
2022/11/23 05:14:49;;;;;;;4.57;4.07;;;19.40;40.70;;;;;;5095771;28;20494;-11
2022/11/23 05:17:22;;;;;;;4.88;4.00;;;19.40;41.30;;;;;;5110971;28;20052;-11
2022/11/23 05:19:50;;;;;;;4.85;4.00;;;19.40;40.80;;;;;;5095255;28;20501;-11
2022/11/23 05:22:16;;;;;;;4.15;3.75;;;19.40;40.80;;;;;;5095127;28;20491;-11
2022/11/23 05:24:42;;;;;;;4.95;3.95;;;19.40;40.80;;;;;;5094554;28;20051;-11
2022/11/23 05:27:12;;;;;;;4.32;3.63;;;19.40;40.80;;;;;;5113622;28;20051;-11
2022/11/23 05:29:38;;;;;;;4.18;3.78;;;19.40;40.80;;;;;;5113300;28;20057;-11
2022/11/23 05:32:06;;;;;;;3.95;3.55;;;19.40;40.80;;;;;;5093205;28;20048;-10
2022/11/23 05:34:31;;;;;;;4.30;3.75;;;19.40;40.80;;;;;;5095001;28;20055;-11
2022/11/23 05:36:58;;;;;;;5.72;4.60;;;19.40;40.80;;;;;;5093608;28;20051;-11
2022/11/23 05:39:24;;;;;;;4.05;3.53;;;19.30;40.90;;;;;;5093173;28;20513;-11
2022/11/23 05:41:51;;;;;;;4.45;3.60;;;19.40;40.80;;;;;;5094622;28;20051;-11
2022/11/23 05:44:38;;;;;;;4.32;3.70;;;19.40;40.80;;;;;;5095240;28;20055;-10
2022/11/23 05:47:07;;;;;;;4.88;4.07;;;19.40;40.90;;;;;;5094206;28;20095;-11
2022/11/23 05:49:33;;;;;;;6.32;3.85;;;19.40;40.90;;;;;;5093933;28;20051;-11
2022/11/23 05:52:01;;;;;;;5.05;3.65;;;19.40;40.90;;;;;;5093757;28;20120;-11
2022/11/23 05:54:28;;;;;;;4.60;3.97;;;19.40;40.90;;;;;;5092917;28;20069;-11
2022/11/23 05:57:02;;;;;;;5.50;3.53;;;19.40;40.90;;;;;;5093351;28;20047;-11
2022/11/23 05:59:39;;;;;;;4.63;3.60;;;19.40;40.90;;;;;;5112976;28;20056;-11
2022/11/23 06:02:08;;;;;;;5.40;4.05;;;19.40;41.50;;;;;;5093829;28;20044;-11
2022/11/23 06:04:35;;;;;;;4.35;3.88;;;19.40;41.00;;;;;;5093295;28;20415;-11
2022/11/23 06:07:01;;;;;;;4.00;3.58;;;19.40;41.00;;;;;;5112667;28;20055;-11
2022/11/23 06:09:40;;;;;;;4.07;3.53;;;19.40;41.10;;;;;;5093820;28;20052;-11
2022/11/23 06:12:08;;;;;;;5.05;3.40;;;19.40;41.00;;;;;;5093283;28;20048;-11
2022/11/23 06:14:34;;;;;;;4.88;3.80;;;19.40;41.00;;;;;;5092603;28;20048;-11
2022/11/23 06:17:00;;;;;;;4.88;3.85;;;19.40;41.00;;;;;;5093845;28;20519;-11
2022/11/23 06:19:50;;;;;;;5.03;4.20;;;19.40;41.00;;;;;;5101500;28;20055;-11
2022/11/23 06:22:16;;;;;;;5.55;3.70;;;19.40;41.00;;;;;;5094544;28;20051;-11
2022/11/23 06:24:50;;;;;;;6.07;4.22;;;19.40;41.00;;;;;;5093904;28;20415;-10
2022/11/23 06:27:38;;;;;;;4.53;3.83;;;19.40;41.00;;;;;;5094218;28;20448;-11
2022/11/23 06:30:13;;;;;;;5.07;4.00;;;19.40;41.00;;;;;;5094298;28;20047;-10
2022/11/23 06:32:39;;;;;;;4.68;3.47;;;19.40;41.00;;;;;;5109645;28;20400;-11
2022/11/23 06:35:05;;;;;;;3.95;3.55;;;19.40;40.90;;;;;;5094724;28;20052;-11
2022/11/23 06:37:34;;;;;;;5.47;4.13;;;19.40;41.00;;;;;;5094325;28;20056;-11
2022/11/23 06:40:00;;;;;;;5.38;3.63;;;19.40;41.00;;;;;;5112478;28;20051;-11
2022/11/23 06:42:26;;;;;;;4.20;3.80;;;19.40;41.00;;;;;;5092320;28;20075;-11
2022/11/23 06:44:52;;;;;;;3.90;3.50;;;19.40;41.00;;;;;;5112768;28;20044;-11
2022/11/23 06:47:20;;;;;;;3.90;3.47;;;19.40;41.00;;;;;;5094213;28;20087;-11
2022/11/23 06:49:46;;;;;;;4.03;3.50;;;19.40;41.00;;;;;;5093855;28;20082;-10
2022/11/23 06:52:18;;;;;;;4.57;3.85;;;19.40;40.90;;;;;;5093414;28;20541;-11
2022/11/23 06:54:45;;;;;;;4.50;3.80;;;19.40;41.00;;;;;;5093966;28;20059;-11
2022/11/23 06:57:11;;;;;;;5.25;4.18;;;19.40;41.10;;;;;;5091818;28;20055;-11
2022/11/23 06:59:36;;;;;;;3.88;3.38;;;19.40;41.10;;;;;;5115825;28;20091;-11
2022/11/23 07:02:03;;;;;;;5.05;3.95;;;19.40;41.30;;;;;;5081252;28;20049;-11
2022/11/23 07:04:33;;;;;;;3.92;3.50;;;19.40;41.10;;;;;;5095710;28;20071;-11
2022/11/23 07:06:59;;;;;;;4.85;4.00;;;19.40;41.00;;;;;;5115441;28;20062;-11
2022/11/23 07:09:33;;;;;;;4.82;3.97;;;19.40;41.10;;;;;;5093841;28;20105;-11
2022/11/23 07:12:12;;;;;;;4.97;4.00;;;19.40;41.10;;;;;;5113633;28;20557;-11
2022/11/23 07:14:38;;;;;;;3.60;3.30;;;19.40;41.00;;;;;;5112795;28;20056;-11
2022/11/23 07:17:04;;;;;;;4.00;3.40;;;19.40;41.10;;;;;;5115331;28;20055;-11
2022/11/23 07:19:32;;;;;;;4.45;3.78;;;19.40;41.10;;;;;;5096684;28;20047;-11
2022/11/23 07:21:58;;;;;;;4.65;3.78;;;19.40;41.00;;;;;;5095913;28;20048;-11
2022/11/23 07:24:25;;;;;;;4.78;3.75;;;19.40;41.00;;;;;;5080679;28;20048;-11
2022/11/23 07:26:50;;;;;;;4.82;3.90;;;19.40;41.10;;;;;;5114087;28;20059;-11
2022/11/23 07:29:16;;;;;;;4.03;3.63;;;19.40;41.00;;;;;;5115046;28;20059;-10
2022/11/23 07:31:42;;;;;;;4.65;4.05;;;19.40;41.10;;;;;;5115570;28;20066;-11
2022/11/23 07:34:09;;;;;;;5.28;3.53;;;19.40;41.00;;;;;;5097339;28;20047;-11
2022/11/23 07:36:35;;;;;;;4.25;3.65;;;19.40;41.00;;;;;;5096634;28;20433;-11
2022/11/23 07:39:02;;;;;;;4.22;3.67;;;19.40;41.00;;;;;;5115093;28;20059;-11
2022/11/23 07:41:27;;;;;;;4.68;3.72;;;19.40;41.00;;;;;;5095448;28;20101;-11
2022/11/23 07:44:08;;;;;;;3.33;2.70;;;19.40;41.00;;;;;;5097255;28;20498;-11
2022/11/23 07:46:34;;;;;;;3.92;3.53;;;19.40;41.00;;;;;;5115071;28;20047;-11
2022/11/23 07:49:00;;;;;;;3.78;3.35;;;19.40;41.00;;;;;;5115449;28;20043;-11
2022/11/23 07:51:26;;;;;;;3.63;3.28;;;19.40;41.00;;;;;;5114933;28;20050;-10
2022/11/23 07:53:52;;;;;;;5.55;3.75;;;19.40;41.00;;;;;;5114738;28;20491;-11
2022/11/23 07:56:18;;;;;;;4.45;3.63;;;19.40;41.00;;;;;;5115055;28;20055;-11
2022/11/23 07:58:43;;;;;;;3.70;3.35;;;19.40;41.00;;;;;;5115337;28;20122;-10
2022/11/23 08:01:13;;;;;;;4.88;3.85;;;19.40;41.10;;;;;;5096425;28;20071;-11
2022/11/23 08:03:38;;;;;;;4.65;3.88;;;19.40;41.10;;;;;;5114627;28;20047;-11
2022/11/23 08:06:08;;;;;;;4.00;3.60;;;19.40;41.10;;;;;;5114630;28;20048;-11
2022/11/23 08:08:35;;;;;;;3.55;3.15;;;19.40;41.00;;;;;;5114362;28;20051;-11
2022/11/23 08:11:01;;;;;;;3.72;3.30;;;19.40;41.00;;;;;;5096054;28;20051;-11
2022/11/23 08:13:26;;;;;;;3.67;3.13;;;19.40;41.00;;;;;;5114564;28;20131;-11
2022/11/23 08:15:52;;;;;;;4.15;3.60;;;19.40;41.00;;;;;;5114245;28;20126;-11
2022/11/23 08:18:18;;;;;;;3.60;3.30;;;19.40;41.00;;;;;;5114511;28;20055;-11
2022/11/23 08:20:44;;;;;;;4.75;3.55;;;19.40;41.00;;;;;;5114744;28;20058;-11
2022/11/23 08:23:10;;;;;;;5.75;3.47;;;19.40;41.00;;;;;;5114269;28;20051;-11
2022/11/23 08:25:35;;;;;;;4.57;3.55;;;19.40;41.00;;;;;;5114662;28;20051;-11
2022/11/23 08:28:03;;;;;;;3.70;3.33;;;19.40;41.00;;;;;;5114882;28;20047;-10
2022/11/23 08:30:31;;;;;;;4.00;3.28;;;19.40;41.00;;;;;;5114252;28;20058;-11
2022/11/23 08:32:56;;;;;;;4.22;3.60;;;19.40;41.00;;;;;;5114175;28;20132;-11
2022/11/23 08:35:22;;;;;;;3.47;3.00;;;19.40;41.00;;;;;;5114090;28;20082;-11
2022/11/23 08:37:48;;;;;;;4.45;3.60;;;19.40;41.00;;;;;;5114072;28;20468;-11
2022/11/23 08:40:15;;;;;;;3.20;2.90;;;19.40;41.10;;;;;;5095205;28;20051;-11
2022/11/23 08:42:41;;;;;;;4.22;3.45;;;19.40;41.10;;;;;;5095250;28;20560;-11
2022/11/23 08:45:07;;;;;;;4.25;3.45;;;19.40;41.00;;;;;;5113878;28;20052;-11
2022/11/23 08:47:33;;;;;;;4.30;3.90;;;19.40;41.00;;;;;;5113750;28;20411;-11
2022/11/23 08:49:59;;;;;;;5.72;4.00;;;19.40;41.00;;;;;;5095251;28;20411;-11
2022/11/23 08:52:25;;;;;;;3.95;3.40;;;19.40;41.00;;;;;;5113852;28;20050;-11
2022/11/23 08:54:52;;;;;;;4.07;3.67;;;19.40;41.10;;;;;;5113736;28;20044;-11
2022/11/23 08:57:17;;;;;;;4.40;3.75;;;19.40;41.10;;;;;;5113977;28;20403;-11
2022/11/23 08:59:43;;;;;;;4.13;3.33;;;19.40;41.10;;;;;;5113553;28;20059;-10
2022/11/23 09:02:12;;;;;;;4.00;3.30;;;19.40;41.10;;;;;;5113949;28;20123;-10
2022/11/23 09:04:39;;;;;;;4.10;3.42;;;19.40;41.00;;;;;;5113423;28;20125;-10
2022/11/23 09:07:05;;;;;;;3.95;3.30;;;19.40;41.10;;;;;;5114045;28;20396;-10
2022/11/23 09:09:31;;;;;;;4.50;3.50;;;19.40;41.00;;;;;;5113737;28;20542;-10
2022/11/23 09:11:57;;;;;;;5.93;3.80;;;19.40;41.00;;;;;;5113062;28;20055;-10
2022/11/23 09:14:23;;;;;;;4.63;3.83;;;19.50;42.20;;;;;;5113296;28;20513;-10
2022/11/23 09:16:49;;;;;;;6.97;3.47;;;19.60;41.10;;;;;;5113566;28;20070;-10
2022/11/23 09:19:15;;;;;;;4.38;3.50;;;19.60;41.00;;;;;;5113075;28;20172;-10
2022/11/23 09:21:42;;;;;;;3.65;3.05;;;19.70;40.90;;;;;;5112567;28;20086;-10
2022/11/23 09:24:11;;;;;;;4.65;3.42;;;19.70;40.90;;;;;;5094943;28;20143;-10
2022/11/23 09:26:38;;;;;;;3.50;3.20;;;19.70;40.80;;;;;;5113337;28;20483;-10
2022/11/23 09:29:05;;;;;;;3.95;3.30;;;19.70;40.80;;;;;;5113197;28;20130;-10
2022/11/23 09:31:31;;;;;;;4.10;3.03;;;19.80;40.70;;;;;;5113632;28;20047;-10
2022/11/23 09:33:57;;;;;;;4.60;3.40;;;19.80;40.70;;;;;;5112968;28;20051;-10
2022/11/23 09:36:23;;;;;;;4.85;3.70;;;19.80;40.60;;;;;;5113130;28;20411;-10
2022/11/23 09:38:49;;;;;;;3.70;3.28;;;19.80;40.60;;;;;;5113089;28;20048;-10
2022/11/23 09:41:41;;;;;;;3.72;2.92;;;19.80;40.60;;;;;;5112663;28;20056;-10
2022/11/23 09:44:32;;;;;;;4.47;3.50;;;19.80;40.60;;;;;;5113237;28;20476;-10
2022/11/23 09:47:16;;;;;;;3.92;3.30;;;19.80;40.60;;;;;;5108738;28;20052;-11
2022/11/23 09:50:01;;;;;;;3.50;3.20;;;19.80;40.50;;;;;;5111341;28;20067;-11
2022/11/23 09:52:29;;;;;;;6.28;3.60;;;19.90;40.50;;;;;;5110459;28;20074;-11
2022/11/23 09:55:02;;;;;;;4.22;2.97;;;19.90;40.40;;;;;;5111551;28;20089;-11
2022/11/23 09:57:32;;;;;;;5.18;3.10;;;19.90;40.50;;;;;;5111484;28;20052;-10
2022/11/23 10:00:04;;;;;;;4.95;3.40;;;19.90;40.40;;;;;;5108469;28;20055;-11
2022/11/23 10:02:33;;;;;;;5.28;3.50;;;19.90;40.40;;;;;;5111898;28;20495;-11
2022/11/23 10:05:02;;;;;;;4.88;3.03;;;19.90;40.40;;;;;;5113197;28;20086;-10
2022/11/23 10:07:57;;;;;;;7.82;3.03;;;19.90;40.40;;;;;;5112271;28;20475;-10
2022/11/23 10:10:52;;;;;;;5.90;3.33;;;19.90;40.40;;;;;;5069322;28;20121;-11
2022/11/23 10:13:37;;;;;;;3.67;2.97;;;19.80;40.40;;;;;;5112267;28;20437;-11
2022/11/23 10:16:29;;;;;;;3.95;3.33;;;19.90;40.40;;;;;;5112850;28;20077;-11
2022/11/23 10:19:30;;;;;;;3.33;3.03;;;19.90;41.00;;;;;;5098317;28;20472;-12
2022/11/23 10:22:04;;;;;;;;;;;19.90;40.40;;;;;;5112299;28;20078;-11
2022/11/23 10:24:37;;;;;;;4.68;3.35;;;19.90;40.40;;;;;;5112667;28;19915;-11
2022/11/23 10:27:12;;;;;;;3.42;2.85;;;19.90;40.40;;;;;;5112466;28;20078;-11
2022/11/23 10:29:40;;;;;;;4.43;3.20;;;19.90;40.40;;;;;;5112685;28;20047;-11
2022/11/23 10:32:21;;;;;;;5.00;3.53;;;19.90;40.40;;;;;;5112047;28;20043;-11
2022/11/23 10:35:04;;;;;;;5.13;3.40;;;19.90;40.40;;;;;;5116046;28;20051;-11
2022/11/23 10:37:32;;;;;;;3.30;3.00;;;19.90;40.30;;;;;;5113701;28;20047;-12
2022/11/23 10:39:57;;;;;;;4.18;3.65;;;19.90;40.30;;;;;;5113658;28;21055;-11
2022/11/23 10:42:38;;;;;;;4.00;2.90;;;19.90;40.30;;;;;;5114272;28;20499;-11
2022/11/23 10:45:04;;;;;;;4.50;3.30;;;19.90;40.30;;;;;;5114962;28;20058;-11
2022/11/23 10:47:39;;;;;;;3.72;3.33;;;19.90;40.40;;;;;;5114965;28;20078;-11
2022/11/23 10:50:22;;;;;;;5.50;3.75;;;19.90;40.40;;;;;;5115091;28;20105;-11
2022/11/23 10:52:54;;;;;;;3.53;3.20;;;19.90;40.40;;;;;;5116169;28;20352;-11
2022/11/23 10:55:25;;;;;;;5.00;3.10;;;19.90;40.40;;;;;;5115824;28;20048;-11
2022/11/23 10:57:51;;;;;;;;;;;19.90;40.40;;;;;;5116726;28;20052;-11
2022/11/23 11:00:19;;;;;;;5.30;3.33;;;19.90;40.40;;;;;;5115600;28;19922;-10
2022/11/23 11:02:50;;;;;;;3.47;3.00;;;19.90;40.40;;;;;;5115744;28;20052;-11
2022/11/23 11:05:33;;;;;;;;;;;19.90;40.40;;;;;;5116142;28;20058;-11
2022/11/23 11:08:16;;;;;;;5.38;3.33;;;19.90;40.40;;;;;;5115123;28;20019;-11
2022/11/23 11:10:45;;;;;;;4.85;3.33;;;19.80;40.40;;;;;;5115404;28;20052;-11
2022/11/23 11:13:32;;;;;;;3.30;2.83;;;19.80;40.40;;;;;;5115312;28;20451;-11
2022/11/23 11:15:57;;;;;;;3.42;2.90;;;19.80;40.40;;;;;;5096636;28;20517;-11
2022/11/23 11:18:27;;;;;;;4.50;2.92;;;19.80;40.50;;;;;;5115254;28;20490;-11
2022/11/23 11:20:57;;;;;;;3.97;3.10;;;19.80;40.50;;;;;;5114055;28;20393;-12
2022/11/23 11:23:23;;;;;;;3.92;3.00;;;19.80;40.50;;;;;;5114454;28;20467;-10
2022/11/23 11:26:00;;;;;;;4.72;3.20;;;19.80;41.10;;;;;;5115351;28;20415;-10
2022/11/23 11:28:39;;;;;;;3.67;2.90;;;19.80;40.50;;;;;;5115178;28;20052;-11
2022/11/23 11:31:22;;;;;;;4.55;3.75;;;19.80;40.60;;;;;;5115603;28;20248;-11
2022/11/23 11:34:15;;;;;;;5.93;3.38;;;19.80;40.50;;;;;;5115451;28;20044;-11
2022/11/23 11:36:54;;;;;;;3.55;3.00;;;19.80;40.60;;;;;;5113026;28;20098;-12
2022/11/23 11:39:27;;;;;;;3.97;3.10;;;19.80;40.60;;;;;;5113687;28;20058;-11
2022/11/23 11:41:56;;;;;;;4.20;3.20;;;19.80;40.60;;;;;;5114088;28;20043;-11
2022/11/23 11:44:24;;;;;;;4.47;3.28;;;19.90;40.60;;;;;;5113830;28;20484;-11
2022/11/23 11:46:59;;;;;;;4.78;3.28;;;19.90;40.60;;;;;;5114318;28;20054;-11
2022/11/23 11:49:41;;;;;;;5.90;3.30;;;19.90;40.50;;;;;;5096071;28;20460;-11
2022/11/23 11:52:20;;;;;;;3.83;2.80;;;19.90;40.60;;;;;;5096131;28;20055;-11
2022/11/23 11:55:13;;;;;;;3.95;3.05;;;19.90;40.60;;;;;;5114772;28;20052;-11
2022/11/23 11:57:47;;;;;;;4.72;3.47;;;19.90;40.60;;;;;;5113422;28;20503;-11
2022/11/23 12:00:17;;;;;;;4.20;3.20;;;19.90;40.60;;;;;;5114646;28;20077;-10
2022/11/23 12:03:07;;;;;;;4.35;3.30;;;19.90;40.60;;;;;;5114189;28;20155;-11
2022/11/23 12:05:44;;;;;;;4.80;3.10;;;19.90;40.50;;;;;;5112966;28;20039;-11
2022/11/23 12:08:31;;;;;;;3.83;2.88;;;19.90;40.60;;;;;;5114068;28;20619;-11
2022/11/23 12:11:00;;;;;;;3.45;3.15;;;19.90;40.50;;;;;;5114514;28;20056;-11
2022/11/23 12:13:28;;;;;;;3.47;2.85;;;19.90;40.60;;;;;;5114349;28;20159;-11
2022/11/23 12:16:14;;;;;;;5.65;3.33;;;19.90;40.60;;;;;;5114439;28;20048;-11
2022/11/23 12:19:04;;;;;;;3.42;2.80;;;19.90;40.60;;;;;;5114294;28;20058;-11
2022/11/23 12:21:42;;;;;;;4.32;3.38;;;19.90;40.50;;;;;;5112934;28;20487;-11
2022/11/23 12:24:58;;;;;;;4.78;3.70;;;19.90;41.10;;;;;;5114030;28;20050;-11
2022/11/23 12:27:27;;;;;;;3.78;3.03;;;19.90;41.20;;;;;;5011711;28;20082;-11
2022/11/23 12:30:24;;;;;;;4.53;2.78;;;19.90;40.90;;;;;;5093014;28;20499;-11
2022/11/23 12:33:21;;;;;;;5.18;2.88;;;20.00;40.90;;;;;;5114331;28;20043;-11
2022/11/23 12:36:05;;;;;;;4.43;3.20;;;20.00;40.90;;;;;;5114450;28;20082;-10
2022/11/23 12:38:52;;;;;;;4.53;3.08;;;20.00;40.90;;;;;;5095671;28;20415;-11
2022/11/23 12:41:23;;;;;;;4.85;2.83;;;20.00;40.80;;;;;;5114005;28;20101;-10
2022/11/23 12:44:48;;;;;;;2.47;2.07;;;20.10;40.70;;;;;;5095766;28;20480;-10
2022/11/23 12:47:29;;;;;;;3.33;2.67;;;20.10;40.90;;;;;;5011289;28;20321;-10
2022/11/23 12:50:28;;;;;;;5.28;2.83;;;20.10;40.80;;;;;;5011526;28;20077;-10
2022/11/23 12:53:01;;;;;;;4.60;3.22;;;20.00;41.00;;;;;;5089963;28;20050;-10
2022/11/23 12:55:34;;;;;;;5.00;3.25;;;19.90;41.20;;;;;;5113259;28;20048;-11
2022/11/23 12:58:28;;;;;;;4.50;3.03;;;19.90;41.30;;;;;;5113764;28;20075;-10
2022/11/23 13:01:05;;;;;;;3.05;2.53;;;19.80;41.40;;;;;;5110549;28;20105;-11
2022/11/23 13:04:02;;;;;;;3.15;2.70;;;19.70;41.50;;;;;;5095027;28;20044;-11
2022/11/23 13:33:54;;;;;;;3.05;2.70;;;19.60;41.70;;;;;;5113085;28;20052;-11